Time;durP1;ratioP1;P1;durP2;ratioP2;P2;SDS_P1;SDS_P2;PMS_P1;PMS_P2;Temp;Humidity;BMP_temperature;BMP_pressure;BME280_temperature;BME280_humidity;BME280_pressure;Samples;Min_cycle;Max_cycle;Signal;HPM_P1;HPM_P2
2022/11/24 00:00:29;;;;;;;2.50;1.00;;;5.20;99.90;;;;;;4128806;28;20425;-73
2022/11/24 00:02:30;;;;;;;1.17;0.70;;;5.30;99.90;;;;;;4127356;28;20793;-72
2022/11/24 00:04:31;;;;;;;2.83;0.93;;;5.20;99.90;;;;;;4134558;28;20285;-73
2022/11/24 00:06:33;;;;;;;2.77;1.27;;;5.10;99.90;;;;;;4134408;28;20239;-73
2022/11/24 00:08:36;;;;;;;2.63;0.90;;;5.10;99.90;;;;;;4114394;28;20193;-73
2022/11/24 00:10:37;;;;;;;1.10;0.60;;;5.10;99.90;;;;;;4108886;28;20446;-73
2022/11/24 00:12:38;;;;;;;1.37;1.07;;;5.10;99.90;;;;;;4129506;28;21017;-74
2022/11/24 00:14:38;;;;;;;5.07;1.10;;;5.00;99.90;;;;;;4113925;28;20207;-74
2022/11/24 00:16:39;;;;;;;2.50;0.90;;;5.10;99.90;;;;;;4113689;28;20183;-75
2022/11/24 00:18:42;;;;;;;0.90;0.70;;;5.00;99.90;;;;;;4129559;28;20272;-73
2022/11/24 00:20:50;;;;;;;2.17;0.70;;;5.10;99.90;;;;;;4129980;28;20194;-73
2022/11/24 00:22:51;;;;;;;4.83;0.90;;;5.10;99.90;;;;;;4114617;28;20426;-73
2022/11/24 00:24:52;;;;;;;1.77;0.80;;;5.10;99.90;;;;;;4115016;28;20862;-72
2022/11/24 00:26:52;;;;;;;3.03;0.80;;;5.10;99.90;;;;;;4115889;28;20223;-72
2022/11/24 00:28:57;;;;;;;1.90;0.70;;;5.10;99.90;;;;;;4130890;28;20205;-72
2022/11/24 00:30:57;;;;;;;4.03;0.90;;;5.20;99.90;;;;;;4129489;28;20194;-73
2022/11/24 00:32:58;;;;;;;2.57;0.60;;;5.10;99.90;;;;;;4129126;28;20444;-73
2022/11/24 00:34:59;;;;;;;6.00;0.83;;;5.20;99.90;;;;;;4113691;28;20780;-72
2022/11/24 00:36:59;;;;;;;0.60;0.60;;;5.10;99.90;;;;;;4131038;28;20186;-73
2022/11/24 00:39:07;;;;;;;1.90;0.70;;;5.10;99.90;;;;;;4129584;28;20210;-74
2022/11/24 00:41:07;;;;;;;1.67;0.80;;;4.90;99.90;;;;;;4113358;28;20217;-73
2022/11/24 00:43:08;;;;;;;4.27;1.13;;;4.80;99.90;;;;;;4144938;28;20455;-74
2022/11/24 00:45:09;;;;;;;2.30;0.90;;;4.70;99.90;;;;;;4129481;28;20228;-73
2022/11/24 00:47:09;;;;;;;1.90;0.80;;;4.70;99.90;;;;;;4130889;28;20193;-72
2022/11/24 00:49:10;;;;;;;3.83;1.00;;;4.70;99.90;;;;;;4131009;28;20280;-74
2022/11/24 00:51:14;;;;;;;4.73;1.50;;;4.70;99.90;;;;;;4130413;28;20189;-72
2022/11/24 00:53:14;;;;;;;2.37;0.83;;;4.60;99.90;;;;;;4130052;28;20285;-74
2022/11/24 00:55:15;;;;;;;6.70;1.53;;;4.80;99.90;;;;;;4128988;28;20456;-75
2022/11/24 00:57:15;;;;;;;3.13;1.27;;;4.80;99.90;;;;;;4129168;28;20209;-73
2022/11/24 00:59:16;;;;;;;2.40;0.93;;;4.80;99.90;;;;;;4130640;28;20292;-75
2022/11/24 01:01:21;;;;;;;4.63;1.50;;;4.80;99.90;;;;;;4130735;28;20198;-73
2022/11/24 01:03:21;;;;;;;7.90;1.57;;;4.90;99.90;;;;;;4128543;28;20224;-75
2022/11/24 01:05:22;;;;;;;5.30;1.93;;;4.90;99.90;;;;;;4129179;28;20457;-73
2022/11/24 01:07:23;;;;;;;5.00;1.20;;;4.80;99.90;;;;;;4130349;28;20187;-73
2022/11/24 01:09:23;;;;;;;7.90;1.77;;;4.70;99.90;;;;;;4130481;28;20182;-73
2022/11/24 01:12:00;;;;;;;10.03;1.87;;;4.70;99.90;;;;;;4130344;28;20217;-73
2022/11/24 01:13:57;;;;;;;16.13;2.50;;;4.70;99.90;;;;;;4128589;28;20200;-73
2022/11/24 01:15:58;;;;;;;3.27;1.40;;;4.70;99.90;;;;;;4129327;28;20576;-73
2022/11/24 01:17:59;;;;;;;7.37;1.70;;;4.80;99.90;;;;;;4129929;28;20457;-73
2022/11/24 01:19:59;;;;;;;2.73;1.33;;;4.90;99.90;;;;;;4129203;28;20695;-74
2022/11/24 01:22:00;;;;;;;10.50;1.67;;;4.90;99.90;;;;;;4130406;28;20557;-74
2022/11/24 01:24:01;;;;;;;7.03;1.43;;;5.00;99.90;;;;;;4129469;28;20206;-73
2022/11/24 01:26:08;;;;;;;9.27;2.17;;;4.90;99.90;;;;;;4130370;28;20186;-73
2022/11/24 01:28:09;;;;;;;4.33;1.40;;;4.90;99.90;;;;;;4130287;28;20266;-73
2022/11/24 01:30:10;;;;;;;7.67;1.30;;;5.00;99.90;;;;;;4130184;28;20454;-73
2022/11/24 01:32:11;;;;;;;7.50;1.87;;;4.90;99.90;;;;;;4130311;28;20197;-73
2022/11/24 01:34:12;;;;;;;9.07;1.53;;;4.80;99.90;;;;;;4128071;28;20452;-74
2022/11/24 01:36:13;;;;;;;5.23;1.60;;;4.90;99.90;;;;;;4130403;28;20260;-73
2022/11/24 01:38:13;;;;;;;12.03;1.83;;;4.80;99.90;;;;;;4128787;28;20503;-73
2022/11/24 01:40:14;;;;;;;7.13;1.50;;;4.80;99.90;;;;;;4130415;28;20582;-73
2022/11/24 01:42:15;;;;;;;5.43;1.47;;;4.80;99.90;;;;;;4128981;28;20182;-74
2022/11/24 01:44:23;;;;;;;5.47;1.50;;;4.90;99.90;;;;;;4128127;28;20468;-73
2022/11/24 01:46:46;;;;;;;7.73;1.73;;;4.90;99.90;;;;;;4130357;28;20182;-72
2022/11/24 01:48:57;;;;;;;7.13;1.73;;;5.00;99.90;;;;;;4132028;28;20476;-73
2022/11/24 01:51:24;;;;;;;6.67;1.97;;;4.90;99.90;;;;;;4132244;28;20429;-73
2022/11/24 01:53:25;;;;;;;7.73;2.07;;;4.90;99.90;;;;;;4132368;28;21001;-75
2022/11/24 01:55:32;;;;;;;4.70;1.83;;;4.90;99.90;;;;;;4132167;28;20464;-72
2022/11/24 01:57:37;;;;;;;6.60;1.50;;;4.90;99.90;;;;;;4131787;28;20275;-73
2022/11/24 01:59:38;;;;;;;7.57;1.67;;;4.90;99.90;;;;;;4131982;28;20544;-73
2022/11/24 02:01:39;;;;;;;7.13;1.60;;;5.00;99.90;;;;;;4115393;28;20434;-73
2022/11/24 02:03:42;;;;;;;6.87;1.37;;;5.10;99.90;;;;;;4114788;28;20217;-74
2022/11/24 02:06:07;;;;;;;10.43;1.60;;;5.20;99.90;;;;;;4131605;28;20269;-74
2022/11/24 02:08:26;;;;;;;14.10;2.37;;;5.30;99.90;;;;;;4117299;28;20440;-73
2022/11/24 02:10:28;;;;;;;10.13;2.27;;;5.30;99.90;;;;;;4138461;28;20428;-73
2022/11/24 02:12:28;;;;;;;8.67;2.50;;;5.30;99.90;;;;;;4132230;28;20433;-74
2022/11/24 02:14:29;;;;;;;9.73;2.23;;;5.30;99.90;;;;;;4131543;28;20452;-74
2022/11/24 02:16:32;;;;;;;11.57;2.90;;;5.20;99.90;;;;;;4131948;28;20591;-74
2022/11/24 02:18:33;;;;;;;8.90;2.50;;;5.20;99.90;;;;;;4131945;28;20222;-74
2022/11/24 02:20:34;;;;;;;7.70;1.87;;;5.20;99.90;;;;;;4104589;28;20527;-73
2022/11/24 02:22:39;;;;;;;11.40;2.20;;;5.10;99.90;;;;;;4116536;28;20186;-73
2022/11/24 02:24:49;;;;;;;13.30;2.63;;;5.10;99.90;;;;;;4115553;28;20223;-74
2022/11/24 02:26:51;;;;;;;7.37;1.50;;;5.00;99.90;;;;;;4099420;29;20430;-74
2022/11/24 02:28:52;;;;;;;9.77;2.30;;;5.00;99.90;;;;;;4116501;28;20437;-74
2022/11/24 02:30:53;;;;;;;11.77;2.03;;;4.90;99.90;;;;;;4131312;28;20859;-73
2022/11/24 02:32:53;;;;;;;10.63;2.63;;;5.00;99.90;;;;;;4132078;28;20281;-74
2022/11/24 02:35:13;;;;;;;8.40;2.37;;;5.10;99.90;;;;;;4115391;28;20454;-73
2022/11/24 02:37:14;;;;;;;12.30;3.30;;;5.10;99.90;;;;;;4131284;28;20182;-73
2022/11/24 02:39:15;;;;;;;11.80;3.13;;;5.20;99.90;;;;;;4132644;28;20461;-73
2022/11/24 02:41:20;;;;;;;12.07;2.23;;;5.30;99.90;;;;;;4131548;28;20238;-74
2022/11/24 02:43:22;;;;;;;7.93;2.00;;;5.20;99.90;;;;;;4130912;28;20479;-74
2022/11/24 02:45:24;;;;;;;10.73;2.97;;;5.00;99.90;;;;;;4114803;28;20446;-74
2022/11/24 02:47:25;;;;;;;3.80;1.53;;;4.90;99.90;;;;;;4132483;28;20489;-74
2022/11/24 02:49:26;;;;;;;6.37;1.17;;;4.80;99.90;;;;;;4132407;28;20433;-74
2022/11/24 02:51:28;;;;;;;4.60;1.43;;;4.90;99.90;;;;;;4132234;28;20237;-74
2022/11/24 02:53:28;;;;;;;8.40;1.57;;;4.90;99.90;;;;;;4130603;28;20186;-74
2022/11/24 02:55:29;;;;;;;8.07;2.30;;;4.90;99.90;;;;;;4130522;28;20891;-74
2022/11/24 02:57:30;;;;;;;7.97;2.00;;;4.90;99.90;;;;;;4130803;28;20465;-73
2022/11/24 02:59:31;;;;;;;10.53;2.53;;;4.90;99.90;;;;;;4132072;28;20206;-73
2022/11/24 03:01:31;;;;;;;10.43;2.27;;;4.90;99.90;;;;;;4132406;28;20194;-74
2022/11/24 03:03:32;;;;;;;7.43;2.83;;;4.90;99.90;;;;;;4131476;28;20199;-74
2022/11/24 03:05:33;;;;;;;16.07;2.00;;;5.00;99.90;;;;;;4131161;28;20600;-74
2022/11/24 03:07:33;;;;;;;15.03;2.13;;;5.00;99.90;;;;;;4130761;28;20269;-73
2022/11/24 03:09:34;;;;;;;8.23;2.00;;;4.90;99.90;;;;;;4132230;28;20190;-74
2022/11/24 03:11:35;;;;;;;7.33;1.80;;;5.00;99.90;;;;;;4131865;28;20195;-74
2022/11/24 03:13:36;;;;;;;7.53;1.63;;;5.00;99.90;;;;;;4136308;28;20183;-73
2022/11/24 03:15:36;;;;;;;10.50;1.77;;;5.10;99.90;;;;;;4120950;28;20203;-74
2022/11/24 03:17:37;;;;;;;13.13;2.00;;;5.10;99.90;;;;;;4137129;28;20619;-73
2022/11/24 03:19:38;;;;;;;10.07;3.97;;;5.00;99.90;;;;;;4138495;28;20207;-74
2022/11/24 03:21:38;;;;;;;12.57;4.63;;;5.10;99.90;;;;;;4138035;28;20197;-73
2022/11/24 03:23:39;;;;;;;8.00;2.23;;;5.00;99.90;;;;;;4136822;28;20191;-74
2022/11/24 03:25:40;;;;;;;10.33;2.83;;;5.00;99.90;;;;;;4137121;28;20178;-74
2022/11/24 03:27:40;;;;;;;9.70;3.00;;;5.00;99.90;;;;;;4128837;28;20212;-73
2022/11/24 03:29:41;;;;;;;10.50;3.50;;;5.00;99.90;;;;;;4120725;28;20238;-73
2022/11/24 03:31:42;;;;;;;5.80;1.70;;;4.90;99.90;;;;;;4139027;28;20190;-73
2022/11/24 03:33:42;;;;;;;11.63;1.87;;;4.90;99.90;;;;;;4136283;28;20302;-73
2022/11/24 03:35:43;;;;;;;4.97;1.50;;;5.00;99.90;;;;;;4134275;28;20191;-74
2022/11/24 03:37:44;;;;;;;8.10;2.07;;;4.90;99.90;;;;;;4132633;28;20190;-74
2022/11/24 03:39:44;;;;;;;7.37;1.70;;;5.10;99.90;;;;;;4132062;28;20190;-75
2022/11/24 03:41:45;;;;;;;4.70;1.87;;;5.10;99.90;;;;;;4132427;28;20193;-75
2022/11/24 03:43:46;;;;;;;5.33;1.70;;;5.10;99.90;;;;;;4130202;28;20198;-74
2022/11/24 03:45:48;;;;;;;8.30;1.77;;;5.20;99.90;;;;;;4131706;28;20232;-76
2022/11/24 03:47:50;;;;;;;8.03;2.20;;;5.20;99.90;;;;;;4130412;28;20233;-72
2022/11/24 03:49:51;;;;;;;11.17;2.43;;;5.10;99.90;;;;;;4131624;28;20809;-75
2022/11/24 03:51:52;;;;;;;7.87;1.90;;;5.20;99.90;;;;;;4131431;28;20436;-74
2022/11/24 03:53:52;;;;;;;9.20;1.97;;;5.30;99.90;;;;;;4131021;28;20202;-74
2022/11/24 03:55:54;;;;;;;14.37;2.00;;;5.50;99.90;;;;;;4130234;28;20196;-74
2022/11/24 03:57:55;;;;;;;9.17;3.20;;;5.50;99.90;;;;;;4131637;28;20183;-74
2022/11/24 03:59:55;;;;;;;8.80;2.00;;;5.60;99.90;;;;;;4131336;28;20418;-74
2022/11/24 04:01:56;;;;;;;15.53;3.30;;;5.40;99.90;;;;;;4131766;28;20185;-74
2022/11/24 04:03:56;;;;;;;8.20;2.40;;;5.50;99.90;;;;;;4129760;28;20628;-74
2022/11/24 04:05:57;;;;;;;13.57;2.23;;;5.50;99.90;;;;;;4129777;28;20213;-75
2022/11/24 04:08:01;;;;;;;11.40;1.87;;;5.70;99.90;;;;;;4130055;28;20197;-75
2022/11/24 04:10:02;;;;;;;10.00;2.43;;;5.60;99.90;;;;;;4113552;28;20650;-74
2022/11/24 04:14:23;;;;;;;9.53;1.80;;;5.60;99.90;;;;;;4133946;28;20532;-74
2022/11/24 04:16:23;;;;;;;7.43;1.83;;;5.40;99.90;;;;;;4117142;28;20415;-74
2022/11/24 04:18:24;;;;;;;9.17;2.00;;;5.50;99.90;;;;;;4131016;28;20702;-74
2022/11/24 04:20:25;;;;;;;13.03;1.83;;;5.50;99.90;;;;;;4131554;28;20191;-75
2022/11/24 04:22:25;;;;;;;8.87;2.10;;;5.60;99.90;;;;;;4131905;28;20183;-75
2022/11/24 04:24:26;;;;;;;10.23;1.83;;;5.70;99.90;;;;;;4129941;28;20230;-75
2022/11/24 04:26:27;;;;;;;15.13;2.67;;;5.90;99.90;;;;;;4130298;28;20543;-74
2022/11/24 04:28:27;;;;;;;8.60;3.13;;;5.90;99.90;;;;;;4131338;28;20307;-75
2022/11/24 04:30:28;;;;;;;7.60;2.10;;;6.00;99.90;;;;;;4130320;28;20712;-75
2022/11/24 04:32:29;;;;;;;11.23;2.27;;;5.90;99.90;;;;;;4131696;28;20182;-74
2022/11/24 04:34:30;;;;;;;9.40;1.83;;;5.80;99.90;;;;;;4130852;28;20233;-74
2022/11/24 04:36:30;;;;;;;6.63;1.93;;;5.90;99.90;;;;;;4129782;28;20276;-76
2022/11/24 04:38:31;;;;;;;8.00;2.03;;;5.80;99.90;;;;;;4131082;28;20683;-74
2022/11/24 04:40:32;;;;;;;13.43;2.67;;;5.90;99.90;;;;;;4131380;28;20175;-74
2022/11/24 04:42:33;;;;;;;15.13;2.57;;;5.90;99.90;;;;;;4131163;28;20178;-74
2022/11/24 04:44:33;;;;;;;10.57;2.90;;;5.80;99.90;;;;;;4130812;28;20198;-73
2022/11/24 04:46:34;;;;;;;32.40;3.97;;;5.70;99.90;;;;;;4130142;28;20179;-74
2022/11/24 04:48:35;;;;;;;9.67;3.23;;;5.70;99.90;;;;;;4129727;28;20191;-75
2022/11/24 04:50:36;;;;;;;10.20;1.80;;;5.70;99.90;;;;;;4129752;28;20218;-74
2022/11/24 04:52:37;;;;;;;12.10;1.97;;;5.70;99.90;;;;;;4129399;28;20186;-73
2022/11/24 04:54:38;;;;;;;16.27;3.00;;;5.70;99.90;;;;;;4130782;28;20496;-74
2022/11/24 04:56:42;;;;;;;7.07;1.80;;;5.60;99.90;;;;;;4130929;28;20195;-74
2022/11/24 04:58:43;;;;;;;17.40;2.40;;;5.60;99.90;;;;;;4113658;28;20207;-75
2022/11/24 05:00:44;;;;;;;5.53;1.80;;;5.60;99.90;;;;;;4129650;28;20532;-74
2022/11/24 05:02:44;;;;;;;10.43;2.00;;;5.60;99.90;;;;;;4128599;28;20690;-74
2022/11/24 05:04:45;;;;;;;15.30;2.20;;;5.60;99.90;;;;;;4131156;28;20225;-74
2022/11/24 05:06:46;;;;;;;8.27;2.57;;;5.60;99.90;;;;;;4129721;28;20178;-76
2022/11/24 05:08:51;;;;;;;13.87;3.33;;;5.60;99.90;;;;;;4130131;28;20964;-74
2022/11/24 05:10:51;;;;;;;12.53;2.70;;;5.60;99.90;;;;;;4130933;28;20210;-74
2022/11/24 05:12:58;;;;;;;11.77;3.57;;;5.60;99.90;;;;;;4130370;28;20433;-74
2022/11/24 05:15:04;;;;;;;8.57;2.20;;;5.60;99.90;;;;;;4129123;28;20202;-74
2022/11/24 05:17:04;;;;;;;10.67;2.20;;;5.60;99.90;;;;;;4130937;28;20441;-74
2022/11/24 05:19:05;;;;;;;8.77;2.17;;;5.60;99.90;;;;;;4130704;28;20474;-74
2022/11/24 05:21:05;;;;;;;6.07;1.90;;;5.70;99.90;;;;;;4130796;28;20178;-74
2022/11/24 05:23:07;;;;;;;12.80;1.97;;;5.70;99.90;;;;;;4133986;28;20178;-75
2022/11/24 05:25:08;;;;;;;7.53;2.47;;;5.60;99.90;;;;;;4134334;28;20205;-74
2022/11/24 05:27:09;;;;;;;8.03;1.90;;;5.60;99.90;;;;;;4134082;28;20471;-74
2022/11/24 05:29:09;;;;;;;13.30;2.40;;;5.70;99.90;;;;;;4132822;28;20479;-74
2022/11/24 05:31:10;;;;;;;9.13;2.30;;;5.80;99.90;;;;;;4116436;28;20198;-74
2022/11/24 05:33:17;;;;;;;16.43;2.20;;;5.70;99.90;;;;;;4132750;28;20651;-73
2022/11/24 05:35:18;;;;;;;12.27;1.97;;;5.70;99.90;;;;;;4132356;28;20212;-73
2022/11/24 05:37:20;;;;;;;11.47;2.53;;;5.70;99.90;;;;;;4126444;28;20504;-74
2022/11/24 05:39:21;;;;;;;14.13;2.60;;;5.60;99.90;;;;;;4124744;28;20599;-73
2022/11/24 05:41:21;;;;;;;11.90;2.53;;;5.50;99.90;;;;;;4133345;28;20422;-73
2022/11/24 05:43:22;;;;;;;8.77;2.27;;;5.50;99.90;;;;;;4132816;28;20245;-74
2022/11/24 05:45:23;;;;;;;8.00;1.97;;;5.60;99.90;;;;;;4133474;28;20285;-73
2022/11/24 05:47:24;;;;;;;10.90;2.47;;;5.60;99.90;;;;;;4132828;28;20215;-74
2022/11/24 05:49:25;;;;;;;9.20;1.80;;;5.70;99.90;;;;;;4133580;28;20187;-76
2022/11/24 05:51:25;;;;;;;9.93;2.20;;;5.70;99.90;;;;;;4133170;28;20824;-75
2022/11/24 05:53:26;;;;;;;6.60;1.70;;;5.60;99.90;;;;;;4134346;28;20544;-74
2022/11/24 05:55:27;;;;;;;12.60;2.20;;;5.60;99.90;;;;;;4133276;28;20206;-74
2022/11/24 05:57:27;;;;;;;5.77;1.50;;;5.70;99.90;;;;;;4134003;28;20183;-75
2022/11/24 05:59:28;;;;;;;12.57;2.23;;;5.70;99.90;;;;;;4135144;28;20213;-73
2022/11/24 06:01:29;;;;;;;9.60;2.60;;;5.80;99.90;;;;;;4134594;28;20186;-75
2022/11/24 06:03:29;;;;;;;16.30;2.93;;;5.80;99.90;;;;;;4133731;28;20201;-76
2022/11/24 06:05:30;;;;;;;12.53;2.40;;;5.90;99.90;;;;;;4131908;28;20234;-74
2022/11/24 06:07:31;;;;;;;8.50;2.03;;;6.00;99.90;;;;;;4132186;28;20946;-74
2022/11/24 06:09:35;;;;;;;9.17;1.83;;;6.00;99.90;;;;;;4132235;28;20656;-75
2022/11/24 06:11:35;;;;;;;8.37;1.67;;;5.90;99.90;;;;;;4130907;28;20306;-74
2022/11/24 06:13:36;;;;;;;12.83;1.93;;;5.90;99.90;;;;;;4114047;28;21018;-75
2022/11/24 06:15:37;;;;;;;10.03;2.47;;;5.80;99.90;;;;;;4123327;28;20549;-75
2022/11/24 06:17:38;;;;;;;8.40;1.73;;;5.80;99.90;;;;;;4133414;28;20611;-72
2022/11/24 06:19:39;;;;;;;7.83;2.10;;;5.70;99.90;;;;;;4132112;28;20326;-72
2022/11/24 06:21:40;;;;;;;11.50;2.63;;;5.60;99.90;;;;;;4123666;28;20811;-74
2022/11/24 06:23:40;;;;;;;10.47;2.43;;;5.60;99.90;;;;;;4130652;28;20944;-73
2022/11/24 06:25:41;;;;;;;15.73;2.30;;;5.60;99.90;;;;;;4115143;28;20191;-74
2022/11/24 06:27:43;;;;;;;12.57;1.83;;;5.70;99.90;;;;;;4130935;28;20196;-73
2022/11/24 06:29:44;;;;;;;6.07;1.43;;;5.60;99.90;;;;;;4131340;28;20321;-73
2022/11/24 06:31:44;;;;;;;7.03;2.50;;;5.50;99.90;;;;;;4099000;28;20432;-73
2022/11/24 06:33:45;;;;;;;6.87;1.70;;;5.50;99.90;;;;;;4130087;28;20187;-73
2022/11/24 06:35:46;;;;;;;8.23;2.60;;;5.50;99.90;;;;;;4099123;28;20195;-72
2022/11/24 06:37:47;;;;;;;7.23;1.63;;;5.40;99.90;;;;;;4116779;28;20194;-72
2022/11/24 06:39:48;;;;;;;6.37;2.10;;;5.40;99.90;;;;;;4114372;28;20250;-72
2022/11/24 06:41:49;;;;;;;5.47;1.97;;;5.40;99.90;;;;;;4131916;28;20189;-73
2022/11/24 06:43:50;;;;;;;10.07;2.37;;;5.30;99.90;;;;;;4129786;28;20451;-73
2022/11/24 06:45:51;;;;;;;5.40;1.67;;;5.20;99.90;;;;;;4130340;28;20445;-73
2022/11/24 06:47:54;;;;;;;6.30;1.97;;;5.20;99.90;;;;;;4130424;28;20193;-72
2022/11/24 06:49:55;;;;;;;5.37;1.53;;;5.10;99.90;;;;;;4130361;28;20193;-73
2022/11/24 06:51:56;;;;;;;6.20;1.60;;;5.10;99.90;;;;;;4131689;28;20432;-73
2022/11/24 06:53:57;;;;;;;7.20;2.30;;;5.10;99.90;;;;;;4131252;28;20205;-73
2022/11/24 06:55:59;;;;;;;15.40;3.60;;;5.10;99.90;;;;;;4130335;28;20226;-74
2022/11/24 06:58:00;;;;;;;8.77;2.67;;;5.10;99.90;;;;;;4130124;28;20651;-72
2022/11/24 07:00:03;;;;;;;5.57;2.30;;;5.10;99.90;;;;;;4130015;28;20430;-73
2022/11/24 07:02:04;;;;;;;10.80;2.17;;;5.20;99.90;;;;;;4130165;28;20430;-73
2022/11/24 07:04:04;;;;;;;8.77;1.20;;;5.30;99.90;;;;;;4130831;28;20442;-72
2022/11/24 07:06:05;;;;;;;4.87;2.30;;;5.20;99.90;;;;;;4131258;28;20183;-71
2022/11/24 07:08:06;;;;;;;5.10;1.53;;;5.30;99.90;;;;;;4113906;28;20194;-72
2022/11/24 07:10:07;;;;;;;10.33;1.47;;;5.20;99.90;;;;;;4113841;28;20443;-72
2022/11/24 07:12:08;;;;;;;6.00;1.20;;;5.10;99.90;;;;;;4129996;28;20182;-72
2022/11/24 07:14:09;;;;;;;4.20;1.10;;;5.00;99.90;;;;;;4130601;28;20713;-72
2022/11/24 07:16:12;;;;;;;5.53;1.40;;;5.00;99.90;;;;;;4130048;28;20190;-72
2022/11/24 07:18:12;;;;;;;9.17;2.43;;;5.00;99.90;;;;;;4129540;28;20297;-72
2022/11/24 07:20:13;;;;;;;8.23;1.80;;;5.10;99.90;;;;;;4113690;28;20427;-73
2022/11/24 07:22:14;;;;;;;11.40;2.70;;;4.90;99.90;;;;;;4131254;28;20178;-72
2022/11/24 07:24:14;;;;;;;9.10;2.23;;;4.90;99.90;;;;;;4128932;28;20207;-73
2022/11/24 07:26:15;;;;;;;10.57;2.10;;;5.10;99.90;;;;;;4130879;28;20178;-72
2022/11/24 07:28:16;;;;;;;5.30;1.80;;;5.10;99.90;;;;;;4129623;28;20178;-73
2022/11/24 07:30:17;;;;;;;4.57;1.33;;;5.20;99.90;;;;;;4129632;28;20473;-72
2022/11/24 07:32:17;;;;;;;5.73;1.37;;;5.30;99.90;;;;;;4129533;28;20340;-73
2022/11/24 07:34:18;;;;;;;6.10;1.83;;;5.50;99.90;;;;;;4130225;28;20206;-73
2022/11/24 07:36:19;;;;;;;4.83;1.40;;;5.70;99.90;;;;;;4130991;28;20564;-73
2022/11/24 07:38:20;;;;;;;6.10;1.60;;;5.90;99.90;;;;;;4113201;28;20297;-73
2022/11/24 07:40:21;;;;;;;4.73;1.40;;;5.90;99.90;;;;;;4129327;28;20186;-73
2022/11/24 07:42:21;;;;;;;11.93;1.90;;;5.80;99.90;;;;;;4129473;28;20181;-73
2022/11/24 07:44:22;;;;;;;8.20;1.50;;;5.70;99.90;;;;;;4127196;28;20210;-73
2022/11/24 07:46:23;;;;;;;4.00;1.07;;;5.70;99.90;;;;;;4129239;28;20182;-73
2022/11/24 07:48:23;;;;;;;3.67;1.00;;;5.70;99.90;;;;;;4129682;28;20194;-73
2022/11/24 07:50:24;;;;;;;2.87;1.03;;;5.80;99.90;;;;;;4129344;28;20231;-73
2022/11/24 07:52:25;;;;;;;5.23;1.13;;;5.90;99.90;;;;;;4129305;28;20563;-73
2022/11/24 07:54:26;;;;;;;4.67;0.93;;;5.90;99.90;;;;;;4129691;28;20599;-73
2022/11/24 07:56:26;;;;;;;3.33;1.00;;;5.90;99.90;;;;;;4128929;28;20179;-73
2022/11/24 07:58:30;;;;;;;8.07;3.00;;;6.00;99.90;;;;;;4128904;28;20221;-73
2022/11/24 08:00:31;;;;;;;5.50;1.30;;;5.90;99.90;;;;;;4130398;28;20183;-72
2022/11/24 08:02:32;;;;;;;5.53;1.30;;;5.70;99.90;;;;;;4128841;28;20472;-73
2022/11/24 08:04:35;;;;;;;3.37;1.73;;;5.70;99.90;;;;;;4128816;28;20195;-72
2022/11/24 08:06:36;;;;;;;5.33;1.43;;;5.50;99.90;;;;;;4130309;28;20505;-73
2022/11/24 08:08:37;;;;;;;7.30;1.57;;;5.50;99.90;;;;;;4129098;28;20472;-72
2022/11/24 08:10:37;;;;;;;2.53;1.27;;;5.60;99.90;;;;;;4109329;28;20194;-73
2022/11/24 08:12:38;;;;;;;3.03;1.13;;;5.70;99.90;;;;;;4112329;28;20683;-72
2022/11/24 08:14:38;;;;;;;4.40;1.00;;;5.60;99.90;;;;;;4096949;28;20623;-73
2022/11/24 08:16:39;;;;;;;4.23;1.00;;;5.60;99.90;;;;;;4128913;28;20201;-72
2022/11/24 08:18:41;;;;;;;2.97;1.10;;;5.70;99.90;;;;;;4112845;28;20214;-74
2022/11/24 08:20:41;;;;;;;5.23;0.97;;;5.50;99.90;;;;;;4113014;28;20187;-72
2022/11/24 08:22:42;;;;;;;2.70;0.90;;;5.60;99.90;;;;;;4117450;28;20422;-72
2022/11/24 08:24:46;;;;;;;2.60;1.00;;;5.70;99.90;;;;;;4126965;28;20221;-72
2022/11/24 08:26:47;;;;;;;4.17;0.80;;;5.90;99.90;;;;;;4116383;28;20258;-73
2022/11/24 08:28:56;;;;;;;3.43;1.30;;;5.90;99.90;;;;;;4119134;28;20465;-74
2022/11/24 08:31:15;;;;;;;7.63;1.20;;;5.80;99.90;;;;;;4113194;28;20610;-69
2022/11/24 08:33:16;;;;;;;6.90;1.70;;;5.90;99.90;;;;;;4128622;28;20414;-76
2022/11/24 08:35:17;;;;;;;2.83;0.90;;;6.00;99.90;;;;;;4128946;28;20449;-71
2022/11/24 08:37:17;;;;;;;5.73;1.17;;;6.10;99.90;;;;;;4129094;28;20667;-70
2022/11/24 08:39:19;;;;;;;3.60;0.93;;;6.30;99.90;;;;;;4130012;28;20591;-70
2022/11/24 08:41:19;;;;;;;3.27;1.63;;;6.40;99.90;;;;;;4130451;28;20175;-71
2022/11/24 08:43:21;;;;;;;4.93;1.60;;;6.60;99.90;;;;;;4129614;28;20421;-70
2022/11/24 08:45:22;;;;;;;2.80;1.20;;;6.70;99.90;;;;;;4129892;28;20211;-71
2022/11/24 08:47:22;;;;;;;1.43;0.80;;;6.70;99.90;;;;;;4113066;28;20570;-71
2022/11/24 08:49:23;;;;;;;4.10;1.00;;;6.60;99.90;;;;;;4131699;28;20609;-71
2022/11/24 08:51:26;;;;;;;2.00;0.80;;;6.30;99.90;;;;;;4129255;28;20184;-71
2022/11/24 08:53:26;;;;;;;3.03;0.90;;;6.10;99.90;;;;;;4128654;28;20182;-71
2022/11/24 08:55:27;;;;;;;4.30;2.40;;;6.20;99.90;;;;;;4130675;28;20209;-70
2022/11/24 08:57:27;;;;;;;3.03;0.90;;;6.30;99.90;;;;;;4130699;28;20964;-71
2022/11/24 08:59:28;;;;;;;1.40;0.77;;;6.40;99.90;;;;;;4130322;28;20660;-71
2022/11/24 09:01:29;;;;;;;2.00;0.70;;;6.50;99.90;;;;;;4129227;28;20595;-72
2022/11/24 09:03:30;;;;;;;2.83;0.90;;;6.60;99.90;;;;;;4128589;28;20807;-71
2022/11/24 09:05:32;;;;;;;2.03;0.90;;;6.80;99.90;;;;;;4113076;28;20303;-70
2022/11/24 09:07:32;;;;;;;2.67;0.90;;;6.70;99.90;;;;;;4130468;28;20186;-71
2022/11/24 09:09:33;;;;;;;3.43;0.87;;;6.70;99.90;;;;;;4129547;28;20269;-71
2022/11/24 09:11:34;;;;;;;1.90;1.00;;;6.60;99.90;;;;;;4130320;28;20557;-72
2022/11/24 09:13:36;;;;;;;7.03;1.37;;;6.70;99.90;;;;;;4128412;28;20617;-71
2022/11/24 09:15:37;;;;;;;1.03;0.90;;;6.70;99.90;;;;;;4113104;28;20215;-71
2022/11/24 09:17:38;;;;;;;1.70;0.80;;;6.80;99.90;;;;;;4130047;28;20224;-71
2022/11/24 09:19:38;;;;;;;3.07;0.83;;;6.70;99.90;;;;;;4129889;28;20217;-71
2022/11/24 09:21:39;;;;;;;4.27;1.10;;;6.80;99.90;;;;;;4131828;28;20223;-71
2022/11/24 09:23:41;;;;;;;2.70;1.00;;;7.20;99.90;;;;;;4127939;28;20198;-71
2022/11/24 09:25:42;;;;;;;2.87;0.80;;;7.70;99.90;;;;;;4112637;28;20187;-71
2022/11/24 09:27:42;;;;;;;2.87;1.07;;;7.60;99.90;;;;;;4129760;28;20254;-71
2022/11/24 09:29:43;;;;;;;4.67;0.90;;;7.50;99.90;;;;;;4129714;28;20198;-71
2022/11/24 09:31:44;;;;;;;2.07;0.97;;;7.30;99.90;;;;;;4128720;28;20231;-71
2022/11/24 09:33:45;;;;;;;5.37;0.93;;;7.50;99.90;;;;;;4127886;28;20193;-71
2022/11/24 09:35:49;;;;;;;4.53;0.90;;;7.60;99.90;;;;;;4128540;28;20194;-71
2022/11/24 09:37:50;;;;;;;3.37;0.90;;;7.60;99.90;;;;;;4129746;28;20558;-71
2022/11/24 09:39:50;;;;;;;1.90;1.10;;;7.80;99.90;;;;;;4129300;28;20214;-71
2022/11/24 09:42:08;;;;;;;3.40;1.17;;;7.90;99.90;;;;;;4128113;28;20179;-71
2022/11/24 09:44:51;;;;;;;7.73;1.37;;;8.40;99.90;;;;;;4111720;28;20203;-71
2022/11/24 09:47:20;;;;;;;4.10;1.00;;;8.60;99.90;;;;;;4129705;28;20249;-71
2022/11/24 09:49:35;;;;;;;2.47;1.30;;;8.20;99.90;;;;;;4119797;28;20202;-71
2022/11/24 09:51:37;;;;;;;5.97;1.80;;;8.20;98.60;;;;;;4128235;28;20175;-71
2022/11/24 09:53:49;;;;;;;2.00;1.10;;;8.00;98.90;;;;;;4128095;28;20656;-71
2022/11/24 09:55:55;;;;;;;6.63;1.53;;;8.10;97.60;;;;;;4128468;28;20173;-71
2022/11/24 09:58:15;;;;;;;3.93;1.20;;;8.00;98.20;;;;;;4128546;28;20182;-71
2022/11/24 10:00:16;;;;;;;4.13;1.33;;;7.80;98.30;;;;;;4128479;28;20260;-71
2022/11/24 10:02:17;;;;;;;5.53;1.13;;;7.90;98.80;;;;;;4128069;28;20856;-71
2022/11/24 10:04:20;;;;;;;3.20;1.53;;;8.20;98.10;;;;;;4111759;28;20211;-71
2022/11/24 10:06:33;;;;;;;2.07;1.10;;;8.50;97.40;;;;;;4144477;28;20605;-71
2022/11/24 10:08:53;;;;;;;4.40;2.67;;;9.00;96.80;;;;;;4130420;28;20177;-71
2022/11/24 10:10:59;;;;;;;5.43;1.60;;;8.80;94.50;;;;;;4131359;28;20170;-74
2022/11/24 10:13:26;;;;;;;1.83;0.90;;;8.70;95.80;;;;;;4122324;28;20238;-72
2022/11/24 10:15:35;;;;;;;3.70;1.30;;;8.60;96.10;;;;;;4116508;28;20203;-72
2022/11/24 10:18:36;;;;;;;6.63;1.73;;;8.30;96.60;;;;;;4131059;28;20190;-72
2022/11/24 10:20:58;;;;;;;1.67;0.90;;;7.90;96.70;;;;;;4131019;28;20801;-71
2022/11/24 10:23:42;;;;;;;3.07;1.23;;;8.60;94.60;;;;;;4115509;28;20175;-72
2022/11/24 10:25:56;;;;;;;3.90;0.93;;;8.90;91.90;;;;;;4116454;28;20682;-72
2022/11/24 10:28:09;;;;;;;4.70;1.23;;;9.10;90.70;;;;;;4132359;28;20178;-72
2022/11/24 10:30:16;;;;;;;3.83;2.07;;;8.60;91.50;;;;;;4140320;28;20632;-72
2022/11/24 10:32:36;;;;;;;2.73;2.13;;;7.90;92.50;;;;;;4132131;28;20240;-72
2022/11/24 10:34:43;;;;;;;2.77;1.23;;;7.20;93.20;;;;;;4115165;28;20920;-72
2022/11/24 10:37:11;;;;;;;4.53;2.40;;;7.20;94.40;;;;;;4114987;28;20183;-72
2022/11/24 10:39:20;;;;;;;3.43;1.63;;;7.00;94.80;;;;;;4130878;28;20206;-72
2022/11/24 10:41:47;;;;;;;3.10;0.90;;;7.10;95.50;;;;;;4131135;28;20571;-72
2022/11/24 10:43:48;;;;;;;3.47;1.37;;;7.00;96.30;;;;;;4114306;28;20293;-72
2022/11/24 10:45:49;;;;;;;4.33;1.23;;;6.90;96.40;;;;;;4131243;28;20261;-72
2022/11/24 10:47:50;;;;;;;3.80;2.17;;;7.40;97.60;;;;;;4130983;28;20185;-74
2022/11/24 10:50:02;;;;;;;4.47;1.20;;;8.10;93.90;;;;;;4132171;28;20186;-72